sensor_id;sensor_type;location;lat;lon;timestamp;pressure;altitude;pressure_sealevel;temperature;humidity
38616;BME280;24370;51.986;4.666;2023-12-29T00:00:27;100724.31;;;14.35;69.32
38616;BME280;24370;51.986;4.666;2023-12-29T00:02:52;100715.41;;;14.72;69.70
38616;BME280;24370;51.986;4.666;2023-12-29T00:05:17;100707.41;;;15.62;65.98
38616;BME280;24370;51.986;4.666;2023-12-29T00:07:43;100714.13;;;15.16;65.55
38616;BME280;24370;51.986;4.666;2023-12-29T00:10:08;100695.00;;;15.92;62.66
38616;BME280;24370;51.986;4.666;2023-12-29T00:12:34;100682.81;;;15.06;65.40
38616;BME280;24370;51.986;4.666;2023-12-29T00:14:59;100704.50;;;15.70;63.01
38616;BME280;24370;51.986;4.666;2023-12-29T00:17:25;100689.56;;;15.97;61.49
38616;BME280;24370;51.986;4.666;2023-12-29T00:19:50;100674.03;;;16.38;58.89
38616;BME280;24370;51.986;4.666;2023-12-29T00:22:15;100687.63;;;15.75;61.48
38616;BME280;24370;51.986;4.666;2023-12-29T00:24:44;100683.69;;;15.35;61.93
38616;BME280;24370;51.986;4.666;2023-12-29T00:27:10;100679.00;;;15.17;61.97
38616;BME280;24370;51.986;4.666;2023-12-29T00:29:35;100675.91;;;15.86;59.62
38616;BME280;24370;51.986;4.666;2023-12-29T00:32:01;100662.72;;;15.86;59.70
38616;BME280;24370;51.986;4.666;2023-12-29T00:34:27;100686.94;;;15.70;59.86
38616;BME280;24370;51.986;4.666;2023-12-29T00:36:53;100647.31;;;15.99;59.23
38616;BME280;24370;51.986;4.666;2023-12-29T00:39:18;100643.16;;;16.17;58.53
38616;BME280;24370;51.986;4.666;2023-12-29T00:41:43;100679.03;;;16.46;57.29
38616;BME280;24370;51.986;4.666;2023-12-29T00:44:09;100691.28;;;15.71;58.19
38616;BME280;24370;51.986;4.666;2023-12-29T00:46:34;100658.50;;;16.05;58.46
38616;BME280;24370;51.986;4.666;2023-12-29T00:49:00;100668.13;;;14.99;61.48
38616;BME280;24370;51.986;4.666;2023-12-29T00:51:25;100684.13;;;15.75;60.21
38616;BME280;24370;51.986;4.666;2023-12-29T00:53:50;100678.66;;;15.83;59.89
38616;BME280;24370;51.986;4.666;2023-12-29T00:56:16;100686.31;;;15.89;59.32
38616;BME280;24370;51.986;4.666;2023-12-29T00:58:41;100671.13;;;15.70;60.54
38616;BME280;24370;51.986;4.666;2023-12-29T01:01:07;100672.72;;;14.92;62.14
38616;BME280;24370;51.986;4.666;2023-12-29T01:03:37;100674.75;;;15.39;61.90
38616;BME280;24370;51.986;4.666;2023-12-29T01:06:02;100674.75;;;15.93;59.63
38616;BME280;24370;51.986;4.666;2023-12-29T01:08:31;100656.84;;;16.52;57.84
38616;BME280;24370;51.986;4.666;2023-12-29T01:10:58;100660.66;;;15.67;59.90
38616;BME280;24370;51.986;4.666;2023-12-29T01:13:23;100660.97;;;16.59;57.36
38616;BME280;24370;51.986;4.666;2023-12-29T01:15:49;100643.97;;;16.19;59.13
38616;BME280;24370;51.986;4.666;2023-12-29T01:18:14;100638.59;;;16.22;58.73
38616;BME280;24370;51.986;4.666;2023-12-29T01:20:39;100670.09;;;16.50;58.15
38616;BME280;24370;51.986;4.666;2023-12-29T01:23:06;100657.34;;;15.62;60.14
38616;BME280;24370;51.986;4.666;2023-12-29T01:25:31;100661.59;;;15.39;61.04
38616;BME280;24370;51.986;4.666;2023-12-29T01:27:57;100659.06;;;15.36;61.13
38616;BME280;24370;51.986;4.666;2023-12-29T01:30:23;100672.50;;;16.07;59.03
38616;BME280;24370;51.986;4.666;2023-12-29T01:32:48;100676.38;;;15.43;60.08
38616;BME280;24370;51.986;4.666;2023-12-29T01:35:14;100678.69;;;16.06;59.55
38616;BME280;24370;51.986;4.666;2023-12-29T01:37:39;100666.69;;;16.70;56.71
38616;BME280;24370;51.986;4.666;2023-12-29T01:40:05;100677.22;;;15.46;61.76
38616;BME280;24370;51.986;4.666;2023-12-29T01:42:30;100672.06;;;15.94;59.46
38616;BME280;24370;51.986;4.666;2023-12-29T01:44:56;100663.38;;;15.39;62.40
38616;BME280;24370;51.986;4.666;2023-12-29T01:47:22;100661.25;;;15.75;60.54
38616;BME280;24370;51.986;4.666;2023-12-29T01:49:48;100666.16;;;15.88;61.58
38616;BME280;24370;51.986;4.666;2023-12-29T01:52:15;100659.34;;;16.07;61.72
38616;BME280;24370;51.986;4.666;2023-12-29T01:54:41;100682.19;;;15.82;61.08
38616;BME280;24370;51.986;4.666;2023-12-29T01:57:11;100689.28;;;15.80;63.25
38616;BME280;24370;51.986;4.666;2023-12-29T01:59:37;100682.97;;;15.57;63.07
38616;BME280;24370;51.986;4.666;2023-12-29T02:02:03;100678.72;;;15.80;61.27
38616;BME280;24370;51.986;4.666;2023-12-29T02:04:30;100696.28;;;15.52;63.36
38616;BME280;24370;51.986;4.666;2023-12-29T02:06:56;100701.81;;;15.44;64.34
38616;BME280;24370;51.986;4.666;2023-12-29T02:09:21;100690.88;;;15.84;63.08
38616;BME280;24370;51.986;4.666;2023-12-29T02:11:47;100698.78;;;15.84;60.72
38616;BME280;24370;51.986;4.666;2023-12-29T02:14:14;100696.47;;;15.74;62.26
38616;BME280;24370;51.986;4.666;2023-12-29T02:17:21;100704.75;;;15.35;67.26
38616;BME280;24370;51.986;4.666;2023-12-29T02:19:48;100711.22;;;15.25;68.50
38616;BME280;24370;51.986;4.666;2023-12-29T02:22:15;100713.25;;;16.24;64.58
38616;BME280;24370;51.986;4.666;2023-12-29T02:24:50;100705.28;;;16.49;64.19
38616;BME280;24370;51.986;4.666;2023-12-29T02:27:18;100710.03;;;16.16;63.28
38616;BME280;24370;51.986;4.666;2023-12-29T02:29:53;100714.28;;;16.20;64.74
38616;BME280;24370;51.986;4.666;2023-12-29T02:32:26;100697.09;;;16.57;63.62
38616;BME280;24370;51.986;4.666;2023-12-29T02:34:52;100706.69;;;15.57;66.95
38616;BME280;24370;51.986;4.666;2023-12-29T02:37:19;100698.69;;;15.32;69.81
38616;BME280;24370;51.986;4.666;2023-12-29T02:39:45;100689.94;;;15.04;69.68
38616;BME280;24370;51.986;4.666;2023-12-29T02:42:11;100699.94;;;16.02;65.77
38616;BME280;24370;51.986;4.666;2023-12-29T02:44:36;100695.84;;;15.66;67.95
38616;BME280;24370;51.986;4.666;2023-12-29T02:47:02;100699.59;;;15.59;68.79
38616;BME280;24370;51.986;4.666;2023-12-29T02:49:31;100691.13;;;15.49;67.23
38616;BME280;24370;51.986;4.666;2023-12-29T02:51:57;100699.50;;;15.89;66.20
38616;BME280;24370;51.986;4.666;2023-12-29T02:54:22;100705.53;;;16.18;62.75
38616;BME280;24370;51.986;4.666;2023-12-29T02:56:48;100716.16;;;15.89;64.73
38616;BME280;24370;51.986;4.666;2023-12-29T02:59:13;100708.28;;;16.15;63.56
38616;BME280;24370;51.986;4.666;2023-12-29T03:01:38;100709.44;;;16.07;64.10
38616;BME280;24370;51.986;4.666;2023-12-29T03:04:04;100700.22;;;16.19;62.02
38616;BME280;24370;51.986;4.666;2023-12-29T03:06:29;100691.19;;;16.50;60.88
38616;BME280;24370;51.986;4.666;2023-12-29T03:08:54;100686.06;;;16.22;62.60
38616;BME280;24370;51.986;4.666;2023-12-29T03:11:19;100687.53;;;15.78;63.30
38616;BME280;24370;51.986;4.666;2023-12-29T03:13:45;100689.13;;;15.84;64.52
38616;BME280;24370;51.986;4.666;2023-12-29T03:16:13;100668.63;;;16.18;62.72
38616;BME280;24370;51.986;4.666;2023-12-29T03:18:38;100677.59;;;16.61;60.36
38616;BME280;24370;51.986;4.666;2023-12-29T03:21:05;100663.25;;;16.68;60.63
38616;BME280;24370;51.986;4.666;2023-12-29T03:23:31;100669.03;;;17.24;58.08
38616;BME280;24370;51.986;4.666;2023-12-29T03:25:56;100652.03;;;17.31;58.60
38616;BME280;24370;51.986;4.666;2023-12-29T03:28:22;100671.84;;;16.50;59.94
38616;BME280;24370;51.986;4.666;2023-12-29T03:30:47;100663.84;;;15.77;63.93
38616;BME280;24370;51.986;4.666;2023-12-29T03:33:13;100665.25;;;15.89;63.74
38616;BME280;24370;51.986;4.666;2023-12-29T03:35:39;100683.16;;;16.04;63.12
38616;BME280;24370;51.986;4.666;2023-12-29T03:38:04;100675.81;;;16.13;62.98
38616;BME280;24370;51.986;4.666;2023-12-29T03:40:29;100671.94;;;15.98;64.05
38616;BME280;24370;51.986;4.666;2023-12-29T03:42:55;100682.91;;;15.87;64.04
38616;BME280;24370;51.986;4.666;2023-12-29T03:45:20;100663.94;;;16.50;62.17
38616;BME280;24370;51.986;4.666;2023-12-29T03:47:45;100669.06;;;16.05;63.58
38616;BME280;24370;51.986;4.666;2023-12-29T03:50:11;100680.94;;;15.65;64.73
38616;BME280;24370;51.986;4.666;2023-12-29T03:52:36;100657.66;;;15.80;63.28
38616;BME280;24370;51.986;4.666;2023-12-29T03:55:02;100646.69;;;16.87;59.98
38616;BME280;24370;51.986;4.666;2023-12-29T03:57:27;100645.88;;;17.08;58.69
38616;BME280;24370;51.986;4.666;2023-12-29T03:59:52;100652.41;;;16.28;60.56
38616;BME280;24370;51.986;4.666;2023-12-29T04:02:18;100655.00;;;16.30;61.83
38616;BME280;24370;51.986;4.666;2023-12-29T04:04:43;100667.28;;;16.55;59.75
38616;BME280;24370;51.986;4.666;2023-12-29T04:07:08;100673.91;;;16.18;61.76
38616;BME280;24370;51.986;4.666;2023-12-29T04:09:34;100657.66;;;15.80;62.59
38616;BME280;24370;51.986;4.666;2023-12-29T04:11:59;100665.47;;;16.32;62.12
38616;BME280;24370;51.986;4.666;2023-12-29T04:14:24;100659.13;;;16.37;61.67
38616;BME280;24370;51.986;4.666;2023-12-29T04:16:50;100657.56;;;16.55;60.48
38616;BME280;24370;51.986;4.666;2023-12-29T04:19:15;100656.38;;;16.64;59.08
38616;BME280;24370;51.986;4.666;2023-12-29T04:21:40;100674.34;;;16.29;59.52
38616;BME280;24370;51.986;4.666;2023-12-29T04:24:06;100671.38;;;16.62;58.52
38616;BME280;24370;51.986;4.666;2023-12-29T04:26:37;100671.31;;;16.63;58.56
38616;BME280;24370;51.986;4.666;2023-12-29T04:29:03;100658.56;;;16.53;58.46
38616;BME280;24370;51.986;4.666;2023-12-29T04:31:31;100657.63;;;16.30;58.83
38616;BME280;24370;51.986;4.666;2023-12-29T04:33:57;100673.47;;;16.54;57.55
38616;BME280;24370;51.986;4.666;2023-12-29T04:36:22;100666.44;;;16.29;57.57
38616;BME280;24370;51.986;4.666;2023-12-29T04:38:47;100659.81;;;16.88;56.49
38616;BME280;24370;51.986;4.666;2023-12-29T04:41:13;100661.81;;;16.36;57.02
38616;BME280;24370;51.986;4.666;2023-12-29T04:43:38;100667.97;;;16.36;56.67
38616;BME280;24370;51.986;4.666;2023-12-29T04:46:04;100667.31;;;16.04;56.60
38616;BME280;24370;51.986;4.666;2023-12-29T04:48:29;100668.97;;;15.55;58.73
38616;BME280;24370;51.986;4.666;2023-12-29T04:50:54;100653.13;;;16.34;56.02
38616;BME280;24370;51.986;4.666;2023-12-29T04:53:20;100632.13;;;16.54;55.79
38616;BME280;24370;51.986;4.666;2023-12-29T04:55:45;100642.72;;;16.29;56.64
38616;BME280;24370;51.986;4.666;2023-12-29T04:58:10;100667.16;;;16.58;55.80
38616;BME280;24370;51.986;4.666;2023-12-29T05:00:36;100635.97;;;16.69;55.40
38616;BME280;24370;51.986;4.666;2023-12-29T05:03:01;100647.81;;;16.57;55.68
38616;BME280;24370;51.986;4.666;2023-12-29T05:05:26;100652.34;;;16.30;56.07
38616;BME280;24370;51.986;4.666;2023-12-29T05:07:52;100670.03;;;16.28;56.59
38616;BME280;24370;51.986;4.666;2023-12-29T05:10:17;100662.34;;;16.93;55.07
38616;BME280;24370;51.986;4.666;2023-12-29T05:12:43;100662.38;;;16.68;55.49
38616;BME280;24370;51.986;4.666;2023-12-29T05:15:08;100661.84;;;17.05;54.60
38616;BME280;24370;51.986;4.666;2023-12-29T05:17:33;100671.44;;;16.60;55.29
38616;BME280;24370;51.986;4.666;2023-12-29T05:19:59;100663.59;;;17.06;54.42
38616;BME280;24370;51.986;4.666;2023-12-29T05:22:24;100658.31;;;17.06;52.77
38616;BME280;24370;51.986;4.666;2023-12-29T05:24:50;100660.06;;;17.06;53.25
38616;BME280;24370;51.986;4.666;2023-12-29T05:27:15;100657.34;;;17.52;52.62
38616;BME280;24370;51.986;4.666;2023-12-29T05:29:41;100653.25;;;17.00;53.75
38616;BME280;24370;51.986;4.666;2023-12-29T05:32:06;100652.13;;;17.28;53.01
38616;BME280;24370;51.986;4.666;2023-12-29T05:34:32;100650.69;;;16.99;53.22
38616;BME280;24370;51.986;4.666;2023-12-29T05:36:57;100661.53;;;16.43;55.38
38616;BME280;24370;51.986;4.666;2023-12-29T05:39:23;100672.94;;;15.95;57.00
38616;BME280;24370;51.986;4.666;2023-12-29T05:41:48;100650.59;;;17.00;54.48
38616;BME280;24370;51.986;4.666;2023-12-29T05:44:14;100660.00;;;17.07;53.99
38616;BME280;24370;51.986;4.666;2023-12-29T05:46:39;100642.75;;;16.53;54.99
38616;BME280;24370;51.986;4.666;2023-12-29T05:49:04;100642.66;;;16.78;55.43
38616;BME280;24370;51.986;4.666;2023-12-29T05:51:30;100648.56;;;16.85;55.29
38616;BME280;24370;51.986;4.666;2023-12-29T05:53:55;100637.00;;;16.65;54.94
38616;BME280;24370;51.986;4.666;2023-12-29T05:56:21;100634.97;;;16.01;56.65
38616;BME280;24370;51.986;4.666;2023-12-29T05:58:46;100635.03;;;16.23;57.37
38616;BME280;24370;51.986;4.666;2023-12-29T06:01:12;100638.84;;;15.37;60.08
38616;BME280;24370;51.986;4.666;2023-12-29T06:03:37;100638.91;;;16.38;57.03
38616;BME280;24370;51.986;4.666;2023-12-29T06:06:03;100637.47;;;16.53;55.41
38616;BME280;24370;51.986;4.666;2023-12-29T06:08:34;100637.63;;;16.24;57.94
38616;BME280;24370;51.986;4.666;2023-12-29T06:11:00;100630.06;;;16.62;55.58
38616;BME280;24370;51.986;4.666;2023-12-29T06:13:25;100630.97;;;16.84;56.08
38616;BME280;24370;51.986;4.666;2023-12-29T06:15:50;100616.69;;;16.20;58.41
38616;BME280;24370;51.986;4.666;2023-12-29T06:18:16;100626.66;;;16.11;58.60
38616;BME280;24370;51.986;4.666;2023-12-29T06:20:41;100626.75;;;16.08;58.19
38616;BME280;24370;51.986;4.666;2023-12-29T06:23:07;100618.81;;;16.57;57.19
38616;BME280;24370;51.986;4.666;2023-12-29T06:25:32;100629.63;;;16.02;57.89
38616;BME280;24370;51.986;4.666;2023-12-29T06:27:59;100627.19;;;15.96;59.11
38616;BME280;24370;51.986;4.666;2023-12-29T06:30:25;100626.75;;;15.58;59.90
38616;BME280;24370;51.986;4.666;2023-12-29T06:32:50;100623.66;;;15.97;59.34
38616;BME280;24370;51.986;4.666;2023-12-29T06:35:17;100622.41;;;16.55;58.32
38616;BME280;24370;51.986;4.666;2023-12-29T06:37:42;100619.91;;;16.52;57.01
38616;BME280;24370;51.986;4.666;2023-12-29T06:40:08;100628.59;;;16.06;58.67
38616;BME280;24370;51.986;4.666;2023-12-29T06:42:33;100633.56;;;16.16;58.54
38616;BME280;24370;51.986;4.666;2023-12-29T06:44:59;100621.72;;;16.50;58.23
38616;BME280;24370;51.986;4.666;2023-12-29T06:47:24;100630.59;;;16.49;57.42
38616;BME280;24370;51.986;4.666;2023-12-29T06:49:50;100638.50;;;15.73;61.20
38616;BME280;24370;51.986;4.666;2023-12-29T06:52:16;100624.94;;;16.58;58.62
38616;BME280;24370;51.986;4.666;2023-12-29T06:54:41;100623.00;;;16.16;59.41
38616;BME280;24370;51.986;4.666;2023-12-29T06:57:07;100629.06;;;16.41;58.50
38616;BME280;24370;51.986;4.666;2023-12-29T06:59:32;100625.41;;;16.45;58.51
38616;BME280;24370;51.986;4.666;2023-12-29T07:01:58;100624.16;;;16.78;57.62
38616;BME280;24370;51.986;4.666;2023-12-29T07:04:23;100631.09;;;15.86;60.63
38616;BME280;24370;51.986;4.666;2023-12-29T07:06:49;100626.22;;;16.24;60.47
38616;BME280;24370;51.986;4.666;2023-12-29T07:09:14;100644.16;;;15.08;64.01
38616;BME280;24370;51.986;4.666;2023-12-29T07:11:40;100634.28;;;16.19;60.99
38616;BME280;24370;51.986;4.666;2023-12-29T07:14:05;100653.91;;;15.87;61.79
38616;BME280;24370;51.986;4.666;2023-12-29T07:16:30;100645.59;;;16.47;61.03
38616;BME280;24370;51.986;4.666;2023-12-29T07:18:56;100630.94;;;16.14;61.01
38616;BME280;24370;51.986;4.666;2023-12-29T07:21:21;100635.69;;;16.99;58.09
38616;BME280;24370;51.986;4.666;2023-12-29T07:23:47;100620.19;;;17.34;56.08
38616;BME280;24370;51.986;4.666;2023-12-29T07:26:12;100627.09;;;16.94;57.68
38616;BME280;24370;51.986;4.666;2023-12-29T07:28:38;100623.41;;;16.28;60.09
38616;BME280;24370;51.986;4.666;2023-12-29T07:31:03;100612.72;;;17.01;58.12
38616;BME280;24370;51.986;4.666;2023-12-29T07:33:30;100615.00;;;16.65;59.41
38616;BME280;24370;51.986;4.666;2023-12-29T07:35:55;100617.28;;;16.28;60.24
38616;BME280;24370;51.986;4.666;2023-12-29T07:38:20;100622.34;;;16.56;59.55
38616;BME280;24370;51.986;4.666;2023-12-29T07:40:46;100618.59;;;16.16;60.59
38616;BME280;24370;51.986;4.666;2023-12-29T07:43:13;100632.28;;;16.02;62.14
38616;BME280;24370;51.986;4.666;2023-12-29T07:45:38;100634.06;;;16.25;61.05
38616;BME280;24370;51.986;4.666;2023-12-29T07:48:04;100625.41;;;16.45;60.89
38616;BME280;24370;51.986;4.666;2023-12-29T07:50:30;100627.00;;;16.50;59.34
38616;BME280;24370;51.986;4.666;2023-12-29T07:52:55;100623.00;;;16.85;58.91
38616;BME280;24370;51.986;4.666;2023-12-29T07:55:21;100631.19;;;16.08;61.51
38616;BME280;24370;51.986;4.666;2023-12-29T07:57:47;100622.56;;;16.03;62.84
38616;BME280;24370;51.986;4.666;2023-12-29T08:00:16;100629.53;;;17.21;57.63
38616;BME280;24370;51.986;4.666;2023-12-29T08:02:42;100636.75;;;15.73;62.16
38616;BME280;24370;51.986;4.666;2023-12-29T08:05:07;100619.78;;;16.07;61.18
38616;BME280;24370;51.986;4.666;2023-12-29T08:07:36;100621.47;;;16.79;59.73
38616;BME280;24370;51.986;4.666;2023-12-29T08:10:04;100646.81;;;15.35;64.75
38616;BME280;24370;51.986;4.666;2023-12-29T08:12:30;100648.34;;;16.43;60.22
38616;BME280;24370;51.986;4.666;2023-12-29T08:14:55;100638.59;;;16.69;59.78
38616;BME280;24370;51.986;4.666;2023-12-29T08:17:21;100638.00;;;16.37;59.64
38616;BME280;24370;51.986;4.666;2023-12-29T08:19:47;100661.78;;;15.60;63.26
38616;BME280;24370;51.986;4.666;2023-12-29T08:22:12;100661.06;;;15.55;64.15
38616;BME280;24370;51.986;4.666;2023-12-29T08:24:40;100658.25;;;16.37;61.45
38616;BME280;24370;51.986;4.666;2023-12-29T08:27:07;100670.34;;;16.66;61.65
38616;BME280;24370;51.986;4.666;2023-12-29T08:29:33;100660.25;;;16.30;61.35
38616;BME280;24370;51.986;4.666;2023-12-29T08:31:58;100653.28;;;16.53;61.03
38616;BME280;24370;51.986;4.666;2023-12-29T08:34:23;100655.81;;;16.32;60.29
38616;BME280;24370;51.986;4.666;2023-12-29T08:36:49;100657.41;;;16.36;60.77
38616;BME280;24370;51.986;4.666;2023-12-29T08:39:14;100665.16;;;16.41;60.16
38616;BME280;24370;51.986;4.666;2023-12-29T08:41:40;100659.75;;;15.68;62.55
38616;BME280;24370;51.986;4.666;2023-12-29T08:44:05;100658.66;;;16.97;58.75
38616;BME280;24370;51.986;4.666;2023-12-29T08:46:30;100676.69;;;15.88;61.33
38616;BME280;24370;51.986;4.666;2023-12-29T08:48:56;100654.31;;;16.72;59.03
38616;BME280;24370;51.986;4.666;2023-12-29T08:51:21;100669.88;;;16.78;59.35
38616;BME280;24370;51.986;4.666;2023-12-29T08:53:47;100669.88;;;16.78;59.54
38616;BME280;24370;51.986;4.666;2023-12-29T08:56:12;100674.63;;;16.94;58.11
38616;BME280;24370;51.986;4.666;2023-12-29T08:58:39;100666.59;;;16.73;58.31
38616;BME280;24370;51.986;4.666;2023-12-29T09:01:06;100671.63;;;16.56;59.94
38616;BME280;24370;51.986;4.666;2023-12-29T09:03:32;100679.13;;;17.57;56.62
38616;BME280;24370;51.986;4.666;2023-12-29T09:05:57;100670.31;;;16.91;58.06
38616;BME280;24370;51.986;4.666;2023-12-29T09:08:24;100686.16;;;17.58;56.05
38616;BME280;24370;51.986;4.666;2023-12-29T09:10:49;100678.81;;;17.00;57.52
38616;BME280;24370;51.986;4.666;2023-12-29T09:13:14;100691.00;;;16.31;60.14
38616;BME280;24370;51.986;4.666;2023-12-29T09:15:40;100695.09;;;16.87;57.01
38616;BME280;24370;51.986;4.666;2023-12-29T09:18:05;100687.72;;;17.19;56.53
38616;BME280;24370;51.986;4.666;2023-12-29T09:20:31;100688.28;;;16.80;57.45
38616;BME280;24370;51.986;4.666;2023-12-29T09:22:57;100685.13;;;17.18;57.92
38616;BME280;24370;51.986;4.666;2023-12-29T09:25:23;100692.31;;;17.14;56.75
38616;BME280;24370;51.986;4.666;2023-12-29T09:27:48;100682.03;;;16.83;58.06
38616;BME280;24370;51.986;4.666;2023-12-29T09:30:14;100689.59;;;17.16;56.51
38616;BME280;24370;51.986;4.666;2023-12-29T09:32:40;100699.66;;;17.28;56.04
38616;BME280;24370;51.986;4.666;2023-12-29T09:35:05;100704.09;;;17.50;54.81
38616;BME280;24370;51.986;4.666;2023-12-29T09:37:31;100702.41;;;16.55;58.62
38616;BME280;24370;51.986;4.666;2023-12-29T09:39:56;100701.75;;;16.74;57.26
38616;BME280;24370;51.986;4.666;2023-12-29T09:42:22;100706.88;;;17.24;56.25
38616;BME280;24370;51.986;4.666;2023-12-29T09:44:51;100701.22;;;16.88;58.09
38616;BME280;24370;51.986;4.666;2023-12-29T09:47:21;100707.31;;;17.13;56.74
38616;BME280;24370;51.986;4.666;2023-12-29T09:49:48;100719.50;;;16.94;56.48
38616;BME280;24370;51.986;4.666;2023-12-29T09:52:15;100719.88;;;17.51;56.05
38616;BME280;24370;51.986;4.666;2023-12-29T09:54:42;100722.16;;;17.16;56.68
38616;BME280;24370;51.986;4.666;2023-12-29T09:57:08;100730.72;;;16.99;57.32
38616;BME280;24370;51.986;4.666;2023-12-29T09:59:38;100724.63;;;17.43;55.43
38616;BME280;24370;51.986;4.666;2023-12-29T10:02:19;100718.09;;;17.07;55.87
38616;BME280;24370;51.986;4.666;2023-12-29T10:04:45;100733.78;;;17.34;56.06
38616;BME280;24370;51.986;4.666;2023-12-29T10:07:15;100729.28;;;17.58;54.99
38616;BME280;24370;51.986;4.666;2023-12-29T10:09:45;100734.34;;;17.42;55.37
38616;BME280;24370;51.986;4.666;2023-12-29T10:12:11;100741.88;;;18.17;52.83
38616;BME280;24370;51.986;4.666;2023-12-29T10:14:44;100729.84;;;18.09;53.50
38616;BME280;24370;51.986;4.666;2023-12-29T10:20:06;100752.38;;;17.97;54.00
38616;BME280;24370;51.986;4.666;2023-12-29T10:23:08;100747.22;;;17.72;54.53
38616;BME280;24370;51.986;4.666;2023-12-29T10:25:33;100749.44;;;16.69;56.05
38616;BME280;24370;51.986;4.666;2023-12-29T10:27:59;100742.88;;;16.56;56.73
38616;BME280;24370;51.986;4.666;2023-12-29T10:30:33;100739.91;;;18.22;53.84
38616;BME280;24370;51.986;4.666;2023-12-29T10:32:58;100752.81;;;17.64;54.06
38616;BME280;24370;51.986;4.666;2023-12-29T10:35:31;100751.06;;;16.97;56.82
38616;BME280;24370;51.986;4.666;2023-12-29T10:38:13;100736.66;;;17.28;55.24
38616;BME280;24370;51.986;4.666;2023-12-29T10:40:41;100758.16;;;16.95;56.07
38616;BME280;24370;51.986;4.666;2023-12-29T10:43:08;100746.47;;;17.02;56.34
38616;BME280;24370;51.986;4.666;2023-12-29T10:45:34;100752.19;;;17.80;53.31
38616;BME280;24370;51.986;4.666;2023-12-29T10:48:01;100757.19;;;17.43;53.80
38616;BME280;24370;51.986;4.666;2023-12-29T10:50:27;100747.22;;;17.28;54.33
38616;BME280;24370;51.986;4.666;2023-12-29T10:53:14;100765.97;;;17.44;53.81
38616;BME280;24370;51.986;4.666;2023-12-29T10:55:43;100758.97;;;17.65;53.17
38616;BME280;24370;51.986;4.666;2023-12-29T10:58:08;100748.72;;;17.35;53.21
38616;BME280;24370;51.986;4.666;2023-12-29T11:00:34;100754.81;;;17.80;53.13
38616;BME280;24370;51.986;4.666;2023-12-29T11:02:59;100753.34;;;17.06;55.11
38616;BME280;24370;51.986;4.666;2023-12-29T11:05:25;100758.47;;;17.55;54.85
38616;BME280;24370;51.986;4.666;2023-12-29T11:07:53;100755.94;;;17.08;55.05
38616;BME280;24370;51.986;4.666;2023-12-29T11:10:20;100757.88;;;18.13;52.44
38616;BME280;24370;51.986;4.666;2023-12-29T11:12:48;100741.97;;;17.71;53.90
38616;BME280;24370;51.986;4.666;2023-12-29T11:15:14;100751.78;;;17.69;53.76
38616;BME280;24370;51.986;4.666;2023-12-29T11:17:42;100743.56;;;17.75;53.21
38616;BME280;24370;51.986;4.666;2023-12-29T11:20:16;100747.16;;;17.74;52.67
38616;BME280;24370;51.986;4.666;2023-12-29T11:22:42;100753.22;;;17.09;54.73
38616;BME280;24370;51.986;4.666;2023-12-29T11:25:09;100758.66;;;17.95;52.83
38616;BME280;24370;51.986;4.666;2023-12-29T11:27:34;100761.47;;;17.90;52.95
38616;BME280;24370;51.986;4.666;2023-12-29T11:30:02;100760.81;;;17.63;54.48
38616;BME280;24370;51.986;4.666;2023-12-29T11:35:12;100751.94;;;18.29;52.79
38616;BME280;24370;51.986;4.666;2023-12-29T11:40:20;100748.94;;;17.29;54.57
38616;BME280;24370;51.986;4.666;2023-12-29T11:42:51;100743.28;;;17.83;53.13
38616;BME280;24370;51.986;4.666;2023-12-29T11:45:29;100742.09;;;18.52;51.51
38616;BME280;24370;51.986;4.666;2023-12-29T11:47:57;100752.47;;;18.17;50.90
38616;BME280;24370;51.986;4.666;2023-12-29T11:50:33;100747.41;;;18.10;51.67
38616;BME280;24370;51.986;4.666;2023-12-29T11:52:59;100759.47;;;18.18;50.99
38616;BME280;24370;51.986;4.666;2023-12-29T11:55:37;100742.97;;;17.90;51.49
38616;BME280;24370;51.986;4.666;2023-12-29T11:58:04;100741.81;;;18.18;50.84
38616;BME280;24370;51.986;4.666;2023-12-29T12:00:47;100726.75;;;18.39;50.54
38616;BME280;24370;51.986;4.666;2023-12-29T12:03:17;100732.06;;;17.98;50.64
38616;BME280;24370;51.986;4.666;2023-12-29T12:05:45;100725.44;;;19.08;48.51
38616;BME280;24370;51.986;4.666;2023-12-29T12:08:29;100736.13;;;18.27;50.04
38616;BME280;24370;51.986;4.666;2023-12-29T12:13:57;100720.66;;;17.75;51.70
38616;BME280;24370;51.986;4.666;2023-12-29T12:19:08;100720.97;;;18.31;49.79
38616;BME280;24370;51.986;4.666;2023-12-29T12:21:35;100711.41;;;19.06;49.33
38616;BME280;24370;51.986;4.666;2023-12-29T12:24:03;100710.78;;;18.42;49.36
38616;BME280;24370;51.986;4.666;2023-12-29T12:26:31;100721.06;;;19.44;47.57
38616;BME280;24370;51.986;4.666;2023-12-29T12:28:57;100722.16;;;18.24;50.09
38616;BME280;24370;51.986;4.666;2023-12-29T12:31:23;100706.09;;;19.06;48.22
38616;BME280;24370;51.986;4.666;2023-12-29T12:33:55;100716.75;;;17.41;50.45
38616;BME280;24370;51.986;4.666;2023-12-29T12:36:22;100708.38;;;17.74;49.78
38616;BME280;24370;51.986;4.666;2023-12-29T12:38:52;100713.22;;;18.47;48.58
38616;BME280;24370;51.986;4.666;2023-12-29T12:41:18;100695.06;;;18.77;48.36
38616;BME280;24370;51.986;4.666;2023-12-29T12:43:57;100708.81;;;18.86;48.05
38616;BME280;24370;51.986;4.666;2023-12-29T12:46:24;100694.28;;;19.13;47.22
38616;BME280;24370;51.986;4.666;2023-12-29T12:48:51;100695.41;;;19.98;45.64
38616;BME280;24370;51.986;4.666;2023-12-29T12:51:19;100702.00;;;19.55;46.08
38616;BME280;24370;51.986;4.666;2023-12-29T12:53:44;100694.97;;;19.36;46.72
38616;BME280;24370;51.986;4.666;2023-12-29T12:56:12;100688.25;;;19.46;46.50
38616;BME280;24370;51.986;4.666;2023-12-29T12:58:38;100677.44;;;18.38;47.66
38616;BME280;24370;51.986;4.666;2023-12-29T13:01:04;100690.03;;;18.12;48.46